createdAt,value
2019-04-30T00:01:55.793Z,59.12
2019-04-30T00:04:29.846Z,59.07
2019-04-30T00:07:01.720Z,59.04
2019-04-30T00:09:35.158Z,59.05
2019-04-30T00:12:07.519Z,59.04
2019-04-30T00:14:41.353Z,58.99
2019-04-30T00:17:16.011Z,59.03
2019-04-30T00:19:50.558Z,59.04
2019-04-30T00:22:30.913Z,59.06
2019-04-30T00:24:55.498Z,59.09
2019-04-30T00:27:30.205Z,59.11
2019-04-30T00:30:04.833Z,59.14
2019-04-30T00:32:39.022Z,59.14
2019-04-30T00:35:11.808Z,59.16
2019-04-30T00:37:40.981Z,59.17
2019-04-30T00:40:15.373Z,59.15
2019-04-30T00:42:47.489Z,59.18
2019-04-30T00:45:19.120Z,59.19
2019-04-30T00:47:50.718Z,59.17
2019-04-30T00:50:22.616Z,59.18
2019-04-30T00:52:55.510Z,59.22
2019-04-30T00:55:27.846Z,59.29
2019-04-30T00:57:59.766Z,59.34
2019-04-30T01:00:33.109Z,59.41
2019-04-30T01:03:19.336Z,59.46
2019-04-30T01:05:51.173Z,59.46
2019-04-30T01:08:27.185Z,59.45
2019-04-30T01:10:59.852Z,59.50
2019-04-30T01:13:31.578Z,59.58
2019-04-30T01:16:03.366Z,59.61
2019-04-30T01:18:35.018Z,59.63
2019-04-30T01:21:07.885Z,59.62
2019-04-30T01:23:48.058Z,59.64
2019-04-30T01:26:14.872Z,59.66
2019-04-30T01:28:49.387Z,59.68
2019-04-30T01:31:21.197Z,59.74
2019-04-30T01:33:53.200Z,59.74
2019-04-30T01:36:25.020Z,59.77
2019-04-30T01:38:56.704Z,59.80
2019-04-30T01:41:31.446Z,59.83
2019-04-30T01:44:03.700Z,59.86
2019-04-30T01:46:36.053Z,59.92
2019-04-30T01:49:08.644Z,59.96
2019-04-30T01:51:40.422Z,60.06
2019-04-30T01:54:13.694Z,60.11
2019-04-30T01:57:19.792Z,60.10
2019-04-30T02:00:09.771Z,60.09
2019-04-30T02:02:43.242Z,60.13
2019-04-30T02:05:14.911Z,60.16
2019-04-30T02:07:48.610Z,60.16
2019-04-30T02:10:21.079Z,60.24
2019-04-30T02:12:53.131Z,60.34
2019-04-30T02:15:24.982Z,60.43
2019-04-30T02:17:58.288Z,60.53
2019-04-30T02:20:30.739Z,60.61
2019-04-30T02:23:02.590Z,60.65
2019-04-30T02:25:34.491Z,60.70
2019-04-30T02:28:06.283Z,60.73
2019-04-30T02:30:40.497Z,60.78
2019-04-30T02:33:11.438Z,60.89
2019-04-30T02:35:53.351Z,60.94
2019-04-30T02:38:33.457Z,61.01
2019-04-30T02:41:09.639Z,61.12
2019-04-30T02:43:42.405Z,61.21
2019-04-30T02:46:16.359Z,61.25
2019-04-30T02:48:50.438Z,61.34
2019-04-30T02:51:25.543Z,61.45
2019-04-30T02:54:26.088Z,61.56
2019-04-30T02:57:11.551Z,61.58
2019-04-30T03:00:02.119Z,61.59
2019-04-30T03:02:33.801Z,61.60
2019-04-30T03:05:06.412Z,61.64
2019-04-30T03:07:40.513Z,61.69
2019-04-30T03:10:12.034Z,61.78
2019-04-30T03:12:43.909Z,61.80
2019-04-30T03:15:15.577Z,61.84
2019-04-30T03:18:02.232Z,61.89
2019-04-30T03:21:02.272Z,61.90
2019-04-30T03:23:33.984Z,61.97
2019-04-30T03:26:05.904Z,61.97
2019-04-30T03:28:39.666Z,62.04
2019-04-30T03:31:12.428Z,61.99
2019-04-30T03:33:44.426Z,62.04
2019-04-30T03:36:16.256Z,62.06
2019-04-30T03:38:50.090Z,62.10
2019-04-30T03:41:21.804Z,62.17
2019-04-30T03:43:53.701Z,62.19
2019-04-30T03:46:25.342Z,62.24
2019-04-30T03:48:57.080Z,62.30
2019-04-30T03:51:30.335Z,62.32
2019-04-30T03:54:02.247Z,62.33
2019-04-30T03:56:34.645Z,62.39
2019-04-30T03:59:06.381Z,62.37
2019-04-30T04:01:44.617Z,62.44
2019-04-30T04:04:22.466Z,62.39
2019-04-30T04:07:06.199Z,62.46
2019-04-30T04:09:43.496Z,62.49
2019-04-30T04:12:33.817Z,62.48
2019-04-30T04:15:05.829Z,62.47
2019-04-30T04:17:39.694Z,62.45
2019-04-30T04:20:11.682Z,62.50
2019-04-30T04:22:43.697Z,62.45
2019-04-30T04:25:15.661Z,62.55
2019-04-30T04:27:50.561Z,62.55
2019-04-30T04:30:20.998Z,62.60
2019-04-30T04:32:52.660Z,62.63
2019-04-30T04:35:24.406Z,62.60
2019-04-30T04:37:56.284Z,62.61
2019-04-30T04:40:30.234Z,62.61
2019-04-30T04:43:01.898Z,62.66
2019-04-30T04:45:33.763Z,62.66
2019-04-30T04:48:05.563Z,62.61
2019-04-30T04:50:39.796Z,62.57
2019-04-30T04:53:11.652Z,62.54
2019-04-30T04:55:44.737Z,62.48
2019-04-30T04:58:21.173Z,62.46
2019-04-30T05:00:50.658Z,62.40
2019-04-30T05:03:30.502Z,62.36
2019-04-30T05:06:02.809Z,62.36
2019-04-30T05:08:34.593Z,62.32
2019-04-30T05:11:06.845Z,62.33
2019-04-30T05:13:38.972Z,62.31
2019-04-30T05:16:10.719Z,62.31
2019-04-30T05:18:42.624Z,62.29
2019-04-30T05:21:14.708Z,62.23
2019-04-30T05:23:46.372Z,62.17
2019-04-30T05:26:19.093Z,62.12
2019-04-30T05:28:52.987Z,62.09
2019-04-30T05:31:25.625Z,62.02
2019-04-30T05:33:58.764Z,61.96
2019-04-30T05:36:30.571Z,61.90
2019-04-30T05:39:02.740Z,61.87
2019-04-30T05:41:34.573Z,61.82
2019-04-30T05:44:08.208Z,61.79
2019-04-30T05:46:40.255Z,61.72
2019-04-30T05:49:12.179Z,61.69
2019-04-30T05:51:53.624Z,61.68
2019-04-30T05:54:18.936Z,61.63
2019-04-30T05:56:51.060Z,61.55
2019-04-30T05:59:22.937Z,61.49
2019-04-30T06:01:54.772Z,61.48
2019-04-30T06:04:26.607Z,61.48
2019-04-30T06:06:58.719Z,61.42
2019-04-30T06:09:41.155Z,61.42
2019-04-30T06:12:24.896Z,61.43
2019-04-30T06:15:15.577Z,61.41
2019-04-30T06:18:00.073Z,61.38
2019-04-30T06:20:23.171Z,61.35
2019-04-30T06:22:56.762Z,61.34
2019-04-30T06:25:37.221Z,61.32
2019-04-30T06:28:02.324Z,61.22
2019-04-30T06:30:34.598Z,61.14
2019-04-30T06:33:06.451Z,61.13
2019-04-30T06:35:39.169Z,61.18
2019-04-30T06:38:11.100Z,61.24
2019-04-30T06:40:48.737Z,61.22
2019-04-30T06:43:23.015Z,61.13
2019-04-30T06:45:55.453Z,61.07
2019-04-30T06:48:27.263Z,61.02
2019-04-30T06:51:20.763Z,61.01
2019-04-30T06:54:05.878Z,60.98
2019-04-30T06:56:38.710Z,60.97
2019-04-30T06:59:14.154Z,60.94
2019-04-30T07:01:49.005Z,60.87
2019-04-30T07:04:22.276Z,60.86
2019-04-30T07:06:58.913Z,60.76
2019-04-30T07:09:53.145Z,60.69
2019-04-30T07:12:27.990Z,60.68
2019-04-30T07:15:00.921Z,60.68
2019-04-30T07:17:33.089Z,60.60
2019-04-30T07:20:07.569Z,60.49
2019-04-30T07:22:49.609Z,60.39
2019-04-30T07:25:19.469Z,60.29
2019-04-30T07:27:56.529Z,60.18
2019-04-30T07:30:30.955Z,60.05
2019-04-30T07:33:02.919Z,59.96
2019-04-30T07:35:39.929Z,59.79
2019-04-30T07:38:12.416Z,59.72
2019-04-30T07:40:44.048Z,59.64
2019-04-30T07:43:15.959Z,59.56
2019-04-30T07:45:49.548Z,59.34
2019-04-30T07:48:26.259Z,59.27
2019-04-30T07:50:55.237Z,59.26
2019-04-30T07:53:26.850Z,59.26
2019-04-30T07:55:58.898Z,59.17
2019-04-30T07:58:31.059Z,59.00
2019-04-30T08:01:03.278Z,58.62
2019-04-30T08:03:58.992Z,58.49
2019-04-30T08:06:31.599Z,58.42
2019-04-30T08:09:04.347Z,58.46
2019-04-30T08:11:41.861Z,58.28
2019-04-30T08:14:09.838Z,58.13
2019-04-30T08:16:41.776Z,57.97
2019-04-30T08:19:14.290Z,57.85
2019-04-30T08:21:46.309Z,57.75
2019-04-30T08:24:19.337Z,57.71
2019-04-30T08:26:51.163Z,57.60
2019-04-30T08:29:22.915Z,57.42
2019-04-30T08:31:54.999Z,57.05
2019-04-30T08:34:29.114Z,57.04
2019-04-30T08:37:12.453Z,56.95
2019-04-30T08:39:34.286Z,57.01
2019-04-30T08:42:06.287Z,56.90
2019-04-30T08:44:39.650Z,56.56
2019-04-30T08:47:11.553Z,56.18
2019-04-30T08:49:43.684Z,55.86
2019-04-30T08:52:15.764Z,55.63
2019-04-30T08:54:49.611Z,55.54
2019-04-30T08:57:21.609Z,55.61
2019-04-30T08:59:53.452Z,55.64
2019-04-30T09:02:25.489Z,55.56
2019-04-30T09:05:00.580Z,55.54
2019-04-30T09:07:32.311Z,55.41
2019-04-30T09:10:09.281Z,55.28
2019-04-30T09:12:41.328Z,55.06
2019-04-30T09:15:21.215Z,54.99
2019-04-30T09:18:03.192Z,54.86
2019-04-30T09:20:36.621Z,54.85
2019-04-30T09:23:10.986Z,54.72
2019-04-30T09:25:42.141Z,54.18
2019-04-30T09:28:14.309Z,54.31
2019-04-30T09:30:56.048Z,54.58
2019-04-30T09:33:34.521Z,54.36
2019-04-30T09:36:09.152Z,54.14
2019-04-30T09:38:54.442Z,54.05
2019-04-30T09:41:31.761Z,54.01
2019-04-30T09:44:07.311Z,53.86
2019-04-30T09:46:42.334Z,53.48
2019-04-30T09:49:19.559Z,53.21
2019-04-30T09:51:54.007Z,52.94
2019-04-30T09:54:51.645Z,52.91
2019-04-30T09:57:44.465Z,52.77
2019-04-30T10:00:50.396Z,52.95
2019-04-30T10:04:00.313Z,52.92
2019-04-30T10:06:39.842Z,53.00
2019-04-30T10:09:12.273Z,52.56
2019-04-30T10:11:57.255Z,52.83
2019-04-30T10:14:29.458Z,52.90
2019-04-30T10:17:13.932Z,52.04
2019-04-30T10:19:46.561Z,51.78
2019-04-30T10:22:18.815Z,51.80
2019-04-30T10:24:52.266Z,51.83
2019-04-30T10:27:25.310Z,51.71
2019-04-30T10:29:59.255Z,51.52
2019-04-30T10:32:31.232Z,51.53
2019-04-30T10:35:03.021Z,51.27
2019-04-30T10:37:35.089Z,51.51
2019-04-30T10:40:07.318Z,50.86
2019-04-30T10:42:39.396Z,50.91
2019-04-30T10:45:11.517Z,51.06
2019-04-30T10:47:43.744Z,51.24
2019-04-30T10:50:16.191Z,51.13
2019-04-30T10:52:49.179Z,50.92
2019-04-30T10:55:21.424Z,50.42
2019-04-30T10:57:53.419Z,50.19
2019-04-30T11:00:41.607Z,50.08
2019-04-30T11:03:19.965Z,49.75
2019-04-30T11:05:50.186Z,49.88
2019-04-30T11:08:22.547Z,49.79
2019-04-30T11:10:54.920Z,49.50
2019-04-30T11:13:27.242Z,49.47
2019-04-30T11:16:11.880Z,49.17
2019-04-30T11:18:33.429Z,49.33
2019-04-30T11:21:06.131Z,48.83
2019-04-30T11:23:39.936Z,48.85
2019-04-30T11:26:13.019Z,48.75
2019-04-30T11:28:46.123Z,48.75
2019-04-30T11:31:35.963Z,48.58
2019-04-30T11:34:08.605Z,48.08
2019-04-30T11:36:40.699Z,48.26
2019-04-30T11:39:19.771Z,48.04
2019-04-30T11:41:52.119Z,47.67
2019-04-30T11:44:30.851Z,47.39
2019-04-30T11:47:31.394Z,47.16
2019-04-30T11:50:04.198Z,47.33
2019-04-30T11:52:36.482Z,46.11
2019-04-30T11:55:11.692Z,46.55
2019-04-30T11:57:44.618Z,46.96
2019-04-30T12:00:24.988Z,46.63
2019-04-30T12:02:59.035Z,46.21
2019-04-30T12:05:31.600Z,45.83
2019-04-30T12:08:19.336Z,45.57
2019-04-30T12:11:10.016Z,45.07
2019-04-30T12:13:42.374Z,44.32
2019-04-30T12:16:14.459Z,43.86
2019-04-30T12:18:46.425Z,43.46
2019-04-30T12:21:18.790Z,43.59
2019-04-30T12:23:51.116Z,43.14
2019-04-30T12:26:23.236Z,43.26
2019-04-30T12:28:55.358Z,43.02
2019-04-30T12:31:27.457Z,43.04
2019-04-30T12:33:59.554Z,43.09
2019-04-30T12:36:31.667Z,42.48
2019-04-30T12:39:04.228Z,41.77
2019-04-30T12:41:40.383Z,41.54
2019-04-30T12:44:11.207Z,41.93
2019-04-30T12:46:43.196Z,41.50
2019-04-30T12:49:15.281Z,41.27
2019-04-30T12:52:05.008Z,41.23
2019-04-30T12:54:42.464Z,41.12
2019-04-30T12:57:29.517Z,41.25
2019-04-30T13:00:01.895Z,40.75
2019-04-30T13:02:34.098Z,40.89
2019-04-30T13:05:08.672Z,40.98
2019-04-30T13:07:41.298Z,40.60
2019-04-30T13:10:14.441Z,40.07
2019-04-30T13:12:47.716Z,39.77
2019-04-30T13:15:20.586Z,39.23
2019-04-30T13:17:52.753Z,39.66
2019-04-30T13:20:25.142Z,39.89
2019-04-30T13:22:58.848Z,39.91
2019-04-30T13:25:35.588Z,39.96
2019-04-30T13:28:10.013Z,39.74
2019-04-30T13:30:41.205Z,39.46
2019-04-30T13:33:29.430Z,39.18
2019-04-30T13:36:01.706Z,39.18
2019-04-30T13:38:49.023Z,39.16
2019-04-30T13:41:38.633Z,38.98
2019-04-30T13:44:13.792Z,38.79
2019-04-30T13:46:45.959Z,38.87
2019-04-30T13:49:18.986Z,38.84
2019-04-30T13:51:51.330Z,38.70
2019-04-30T13:54:23.469Z,38.63
2019-04-30T13:56:55.550Z,38.77
2019-04-30T13:59:27.681Z,38.39
2019-04-30T14:01:59.808Z,38.46
2019-04-30T14:04:49.592Z,38.28
2019-04-30T14:07:40.601Z,38.32
2019-04-30T14:10:13.785Z,37.95
2019-04-30T14:12:52.187Z,37.86
2019-04-30T14:15:23.600Z,37.73
2019-04-30T14:17:53.551Z,37.76
2019-04-30T14:20:26.157Z,38.03
2019-04-30T14:22:58.471Z,38.15
2019-04-30T14:25:30.790Z,37.97
2019-04-30T14:28:03.028Z,37.56
2019-04-30T14:30:35.396Z,37.57
2019-04-30T14:33:09.456Z,37.79
2019-04-30T14:35:41.900Z,37.75
2019-04-30T14:38:14.402Z,37.64
2019-04-30T14:40:47.521Z,37.49
2019-04-30T14:43:26.623Z,37.61
2019-04-30T14:46:21.740Z,37.56
2019-04-30T14:48:59.950Z,37.54
2019-04-30T14:51:31.091Z,37.55
2019-04-30T14:54:09.976Z,37.55
2019-04-30T14:57:04.042Z,37.41
2019-04-30T14:59:58.733Z,37.43
2019-04-30T15:02:40.812Z,37.44
2019-04-30T15:05:13.073Z,37.44
2019-04-30T15:07:45.579Z,37.16
2019-04-30T15:10:18.379Z,37.15
2019-04-30T15:12:51.061Z,36.98
2019-04-30T15:15:23.324Z,36.90
2019-04-30T15:17:55.569Z,36.73
2019-04-30T15:20:29.534Z,36.50
2019-04-30T15:23:21.883Z,36.49
2019-04-30T15:25:54.185Z,35.69
2019-04-30T15:28:32.171Z,35.99
2019-04-30T15:30:58.716Z,35.50
2019-04-30T15:33:44.891Z,35.62
2019-04-30T15:36:19.239Z,35.25
2019-04-30T15:39:05.754Z,35.45
2019-04-30T15:41:37.963Z,35.52
2019-04-30T15:44:10.622Z,35.50
2019-04-30T15:46:43.052Z,35.38
2019-04-30T15:49:15.232Z,35.35
2019-04-30T15:51:48.289Z,35.12
2019-04-30T15:54:20.974Z,35.14
2019-04-30T15:56:53.372Z,35.00
2019-04-30T15:59:50.070Z,34.95
2019-04-30T16:02:28.740Z,35.03
2019-04-30T16:05:33.216Z,34.86
2019-04-30T16:08:41.596Z,34.79
2019-04-30T16:11:31.585Z,34.72
2019-04-30T16:14:11.423Z,34.76
2019-04-30T16:16:47.412Z,34.66
2019-04-30T16:19:20.083Z,34.55
2019-04-30T16:21:59.129Z,34.49
2019-04-30T16:24:31.969Z,34.44
2019-04-30T16:27:04.188Z,34.22
2019-04-30T16:29:35.976Z,33.99
2019-04-30T16:32:09.264Z,33.98
2019-04-30T16:34:41.750Z,33.87
2019-04-30T16:37:13.589Z,34.02
2019-04-30T16:39:45.638Z,34.00
2019-04-30T16:42:19.024Z,33.95
2019-04-30T16:44:50.971Z,33.92
2019-04-30T16:47:23.022Z,33.87
2019-04-30T16:49:55.275Z,34.00
2019-04-30T16:52:29.290Z,34.01
2019-04-30T16:55:00.950Z,34.13
2019-04-30T16:57:32.684Z,34.14
2019-04-30T17:00:09.196Z,34.04
2019-04-30T17:02:43.350Z,33.87
2019-04-30T17:05:19.907Z,33.63
2019-04-30T17:08:17.006Z,33.59
2019-04-30T17:11:07.164Z,33.60
2019-04-30T17:13:58.451Z,33.60
2019-04-30T17:16:30.301Z,33.72
2019-04-30T17:19:03.476Z,33.95
2019-04-30T17:21:35.621Z,33.93
2019-04-30T17:24:08.762Z,33.82
2019-04-30T17:26:40.671Z,33.69
2019-04-30T17:29:12.811Z,33.63
2019-04-30T17:31:44.883Z,33.67
2019-04-30T17:34:17.128Z,33.65
2019-04-30T17:36:49.694Z,33.62
2019-04-30T17:39:21.794Z,33.65
2019-04-30T17:41:54.001Z,33.57
2019-04-30T17:44:28.800Z,33.65
2019-04-30T17:47:01.164Z,33.75
2019-04-30T17:49:33.653Z,33.89
2019-04-30T17:52:05.864Z,33.97
2019-04-30T17:54:38.637Z,34.11
2019-04-30T17:57:11.254Z,34.25
2019-04-30T17:59:43.685Z,34.37
2019-04-30T18:02:19.471Z,34.53
2019-04-30T18:04:51.776Z,34.71
2019-04-30T18:07:23.904Z,34.89
2019-04-30T18:09:58.604Z,35.08
2019-04-30T18:12:30.481Z,35.22
2019-04-30T18:15:03.237Z,35.43
2019-04-30T18:17:35.391Z,35.64
2019-04-30T18:20:23.389Z,35.91
2019-04-30T18:23:14.242Z,36.17
2019-04-30T18:25:53.999Z,36.44
2019-04-30T18:28:26.043Z,36.76
2019-04-30T18:30:59.037Z,37.13
2019-04-30T18:33:31.148Z,37.52
2019-04-30T18:36:03.240Z,37.82
2019-04-30T18:38:35.158Z,38.03
2019-04-30T18:41:09.325Z,38.28
2019-04-30T18:43:41.486Z,38.45
2019-04-30T18:46:13.407Z,38.68
2019-04-30T18:48:49.711Z,38.90
2019-04-30T18:51:33.651Z,39.11
2019-04-30T18:53:55.913Z,39.35
2019-04-30T18:56:29.008Z,39.62
2019-04-30T18:59:01.116Z,39.82
2019-04-30T19:01:33.163Z,39.90
2019-04-30T19:04:05.370Z,39.96
2019-04-30T19:06:37.219Z,39.93
2019-04-30T19:09:29.653Z,40.00
2019-04-30T19:12:16.570Z,40.11
2019-04-30T19:15:06.113Z,40.19
2019-04-30T19:17:55.501Z,40.27
2019-04-30T19:20:31.547Z,40.32
2019-04-30T19:23:03.400Z,40.38
2019-04-30T19:25:35.708Z,40.45
2019-04-30T19:28:19.048Z,40.55
2019-04-30T19:30:57.364Z,40.60
2019-04-30T19:33:32.366Z,40.57
2019-04-30T19:36:09.660Z,40.59
2019-04-30T19:38:42.236Z,40.65
2019-04-30T19:41:18.923Z,40.73
2019-04-30T19:44:29.384Z,40.81
2019-04-30T19:47:40.962Z,40.87
2019-04-30T19:50:14.412Z,40.85
2019-04-30T19:52:53.648Z,40.91
2019-04-30T19:56:10.594Z,40.90
2019-04-30T19:59:23.317Z,40.84
2019-04-30T20:02:21.775Z,40.83
2019-04-30T20:05:39.399Z,40.86
2019-04-30T20:08:11.938Z,40.93
2019-04-30T20:10:47.811Z,40.94
2019-04-30T20:13:42.893Z,41.03
2019-04-30T20:16:19.655Z,41.04
2019-04-30T20:19:33.893Z,41.07
2019-04-30T20:22:09.369Z,41.16
2019-04-30T20:25:25.635Z,41.19
2019-04-30T20:28:12.283Z,41.33
2019-04-30T20:31:12.413Z,41.42
2019-04-30T20:34:22.569Z,41.59
2019-04-30T20:37:24.476Z,41.70
2019-04-30T20:40:05.319Z,41.80
2019-04-30T20:43:18.746Z,41.91
2019-04-30T20:46:45.969Z,42.05
2019-04-30T20:49:23.411Z,42.17
2019-04-30T20:52:10.159Z,42.28
2019-04-30T20:55:09.756Z,42.46
2019-04-30T20:58:15.938Z,42.61
2019-04-30T21:01:03.425Z,42.72
2019-04-30T21:03:33.358Z,42.92
2019-04-30T21:06:20.131Z,43.17
2019-04-30T21:09:24.317Z,43.44
2019-04-30T21:11:58.780Z,43.63
2019-04-30T21:14:43.774Z,43.79
2019-04-30T21:17:48.397Z,43.94
2019-04-30T21:20:50.641Z,44.02
2019-04-30T21:23:30.079Z,44.08
2019-04-30T21:26:05.772Z,44.05
2019-04-30T21:29:27.345Z,44.35
2019-04-30T21:32:33.328Z,44.55
2019-04-30T21:35:52.714Z,44.70
2019-04-30T21:38:29.209Z,44.89
2019-04-30T21:41:31.799Z,45.01
2019-04-30T21:44:36.779Z,45.18
2019-04-30T21:47:22.781Z,45.34
2019-04-30T21:50:45.416Z,45.55
2019-04-30T21:53:31.623Z,45.75
2019-04-30T21:57:19.263Z,45.92
2019-04-30T22:00:18.507Z,46.11
2019-04-30T22:02:51.234Z,46.20
2019-04-30T22:06:40.931Z,46.51
2019-04-30T22:09:15.695Z,46.74
2019-04-30T22:12:43.481Z,46.76
2019-04-30T22:16:09.133Z,47.00
2019-04-30T22:18:51.570Z,46.99
2019-04-30T22:21:57.058Z,47.10
2019-04-30T22:25:32.015Z,47.10
2019-04-30T22:28:17.710Z,47.21
2019-04-30T22:31:14.123Z,47.08
2019-04-30T22:34:23.561Z,47.21
2019-04-30T22:37:25.946Z,47.26
2019-04-30T22:44:24.650Z,47.35
2019-04-30T22:47:35.662Z,47.32
2019-04-30T22:58:41.629Z,47.38
2019-04-30T23:02:01.999Z,47.40
2019-04-30T23:05:25.929Z,47.32
2019-04-30T23:08:47.215Z,47.45
2019-04-30T23:11:46.531Z,47.56
2019-04-30T23:15:20.358Z,47.66
2019-04-30T23:19:19.347Z,47.80
2019-04-30T23:22:49.813Z,47.78
2019-04-30T23:25:54.591Z,47.97
2019-04-30T23:28:21.613Z,48.16
2019-04-30T23:31:20.453Z,48.35
2019-04-30T23:34:48.529Z,48.50
2019-04-30T23:37:40.137Z,48.62
2019-04-30T23:40:57.390Z,48.73
2019-04-30T23:43:54.844Z,48.89
2019-04-30T23:46:46.965Z,49.06
2019-04-30T23:49:22.451Z,49.15
2019-04-30T23:52:19.407Z,49.31
2019-04-30T23:55:45.373Z,49.43
2019-04-30T23:58:17.770Z,49.42
